createdAt,value
2017-08-21T00:00:15.440Z,83.10
2017-08-21T00:02:43.663Z,83.00
2017-08-21T00:05:11.131Z,83.00
2017-08-21T00:07:38.624Z,82.60
2017-08-21T00:10:06.860Z,82.60
2017-08-21T00:12:34.352Z,82.50
2017-08-21T00:15:01.908Z,82.60
2017-08-21T00:17:30.151Z,83.10
2017-08-21T00:19:57.630Z,83.10
2017-08-21T00:22:25.096Z,83.20
2017-08-21T00:24:52.558Z,83.40
2017-08-21T00:27:20.002Z,83.30
2017-08-21T00:29:47.468Z,83.00
2017-08-21T00:32:14.931Z,83.60
2017-08-21T00:34:43.162Z,83.10
2017-08-21T00:37:10.619Z,83.10
2017-08-21T00:39:38.111Z,83.40
2017-08-21T00:42:05.576Z,83.00
2017-08-21T00:44:33.241Z,83.20
2017-08-21T00:47:01.488Z,83.60
2017-08-21T00:49:28.959Z,83.60
2017-08-21T00:51:57.318Z,84.40
2017-08-21T00:54:24.800Z,83.80
2017-08-21T00:56:53.069Z,84.40
2017-08-21T00:59:20.534Z,83.80
2017-08-21T01:01:48.084Z,83.70
2017-08-21T01:04:15.543Z,83.80
2017-08-21T01:06:43.004Z,83.90
2017-08-21T01:09:11.242Z,85.00
2017-08-21T01:11:38.712Z,84.30
2017-08-21T01:14:06.182Z,84.40
2017-08-21T01:16:33.647Z,84.30
2017-08-21T01:19:01.968Z,84.50
2017-08-21T01:21:29.417Z,84.40
2017-08-21T01:23:56.939Z,84.80
2017-08-21T01:26:25.163Z,85.00
2017-08-21T01:28:52.659Z,85.00
2017-08-21T01:31:20.135Z,85.10
2017-08-21T01:33:48.371Z,85.70
2017-08-21T01:36:15.831Z,86.40
2017-08-21T01:38:43.339Z,85.70
2017-08-21T01:41:10.862Z,85.40
2017-08-21T01:43:38.338Z,85.40
2017-08-21T01:46:06.595Z,86.50
2017-08-21T01:48:34.191Z,86.30
2017-08-21T01:51:01.662Z,86.50
2017-08-21T01:53:29.125Z,86.60
2017-08-21T01:55:57.553Z,86.90
2017-08-21T01:58:25.012Z,87.70
2017-08-21T02:00:52.483Z,87.90
2017-08-21T02:03:20.005Z,87.60
2017-08-21T02:05:47.476Z,88.00
2017-08-21T02:08:15.041Z,88.70
2017-08-21T02:10:42.496Z,89.00
2017-08-21T02:13:10.769Z,90.30
2017-08-21T02:15:38.231Z,90.00
2017-08-21T02:18:05.790Z,90.30
2017-08-21T02:20:34.058Z,90.40
2017-08-21T02:23:01.536Z,90.10
2017-08-21T02:25:29.758Z,90.20
2017-08-21T02:27:57.228Z,90.20
2017-08-21T02:30:24.812Z,90.50
2017-08-21T02:32:52.269Z,90.50
2017-08-21T02:35:21.354Z,90.40
2017-08-21T02:37:48.839Z,90.40
2017-08-21T02:40:17.087Z,90.30
2017-08-21T02:42:44.555Z,90.20
2017-08-21T02:45:12.823Z,90.30
2017-08-21T02:47:40.389Z,90.30
2017-08-21T02:50:07.839Z,90.30
2017-08-21T02:52:36.071Z,90.60
2017-08-21T02:55:03.584Z,90.60
2017-08-21T02:57:31.852Z,91.00
2017-08-21T03:00:00.087Z,91.00
2017-08-21T03:02:27.546Z,91.00
2017-08-21T03:04:55.015Z,91.10
2017-08-21T03:07:22.487Z,91.20
2017-08-21T03:09:49.955Z,91.20
2017-08-21T03:12:18.178Z,91.40
2017-08-21T03:14:45.658Z,91.40
2017-08-21T03:17:13.113Z,91.20
2017-08-21T03:19:41.111Z,91.30
2017-08-21T03:22:09.350Z,91.30
2017-08-21T03:24:36.806Z,91.30
2017-08-21T03:27:04.286Z,91.20
2017-08-21T03:29:31.755Z,91.30
2017-08-21T03:31:59.990Z,91.30
2017-08-21T03:34:27.455Z,91.40
2017-08-21T03:36:54.926Z,91.40
2017-08-21T03:39:22.792Z,91.40
2017-08-21T03:41:50.374Z,91.60
2017-08-21T03:44:18.612Z,91.60
2017-08-21T03:46:46.083Z,91.50
2017-08-21T03:49:13.556Z,91.50
2017-08-21T03:51:41.028Z,91.50
2017-08-21T03:54:09.279Z,91.60
2017-08-21T03:56:36.734Z,91.60
2017-08-21T03:59:04.218Z,91.60
2017-08-21T04:01:31.751Z,91.60
2017-08-21T04:03:59.320Z,91.70
2017-08-21T04:06:26.876Z,91.70
2017-08-21T04:08:54.429Z,91.90
2017-08-21T04:11:21.987Z,91.90
2017-08-21T04:13:49.455Z,91.90
2017-08-21T04:16:17.678Z,91.90
2017-08-21T04:18:45.134Z,91.90
2017-08-21T04:21:12.637Z,92.00
2017-08-21T04:23:40.186Z,92.00
2017-08-21T04:26:07.650Z,92.10
2017-08-21T04:28:35.208Z,92.20
2017-08-21T04:31:02.766Z,92.30
2017-08-21T04:33:30.654Z,92.40
2017-08-21T04:35:58.155Z,92.40
2017-08-21T04:38:25.642Z,92.40
2017-08-21T04:40:53.108Z,92.50
2017-08-21T04:43:20.575Z,92.50
2017-08-21T04:45:48.840Z,92.60
2017-08-21T04:48:16.431Z,92.60
2017-08-21T04:50:43.959Z,92.70
2017-08-21T04:53:11.432Z,92.80
2017-08-21T04:55:39.702Z,93.00
2017-08-21T04:58:07.934Z,92.90
2017-08-21T05:00:35.479Z,92.90
2017-08-21T05:03:02.974Z,92.80
2017-08-21T05:05:57.932Z,92.60
2017-08-21T05:08:25.394Z,92.50
2017-08-21T05:10:52.896Z,92.50
2017-08-21T05:13:20.367Z,92.40
2017-08-21T05:15:47.830Z,92.40
2017-08-21T05:18:15.368Z,92.40
2017-08-21T05:20:42.851Z,92.30
2017-08-21T05:23:10.312Z,92.40
2017-08-21T05:25:37.794Z,92.40
2017-08-21T05:28:05.295Z,92.50
2017-08-21T05:30:32.758Z,92.40
2017-08-21T05:33:00.259Z,92.50
2017-08-21T05:35:27.742Z,92.80
2017-08-21T05:37:55.232Z,92.50
2017-08-21T05:40:23.631Z,92.30
2017-08-21T05:42:51.164Z,92.30
2017-08-21T05:45:18.635Z,92.30
2017-08-21T05:47:46.176Z,92.20
2017-08-21T05:50:13.677Z,92.10
2017-08-21T05:52:41.256Z,92.50
2017-08-21T05:55:08.726Z,92.20
2017-08-21T05:57:36.213Z,92.20
2017-08-21T06:00:03.819Z,92.10
2017-08-21T06:02:31.508Z,92.10
2017-08-21T06:04:58.995Z,92.10
2017-08-21T06:07:26.525Z,92.10
2017-08-21T06:09:53.999Z,92.00
2017-08-21T06:12:21.585Z,91.90
2017-08-21T06:14:49.052Z,92.40
2017-08-21T06:17:16.570Z,91.50
2017-08-21T06:19:44.076Z,90.80
2017-08-21T06:22:11.593Z,90.10
2017-08-21T06:24:39.083Z,88.70
2017-08-21T06:27:06.553Z,86.60
2017-08-21T06:29:34.020Z,85.70
2017-08-21T06:32:01.586Z,85.90
2017-08-21T06:34:29.077Z,86.10
2017-08-21T06:36:56.538Z,87.00
2017-08-21T06:39:23.999Z,87.70
2017-08-21T06:41:51.472Z,88.10
2017-08-21T06:44:18.939Z,87.50
2017-08-21T06:46:46.417Z,87.20
2017-08-21T06:49:13.924Z,86.00
2017-08-21T06:51:41.386Z,83.50
2017-08-21T06:54:09.448Z,82.50
2017-08-21T06:56:36.923Z,81.10
2017-08-21T06:59:04.391Z,79.40
2017-08-21T07:01:31.919Z,78.50
2017-08-21T07:03:59.380Z,78.00
2017-08-21T07:06:26.844Z,78.10
2017-08-21T07:08:54.376Z,78.40
2017-08-21T07:11:21.850Z,78.10
2017-08-21T07:13:49.700Z,78.30
2017-08-21T07:16:17.730Z,79.60
2017-08-21T07:18:45.207Z,80.10
2017-08-21T07:21:12.676Z,80.70
2017-08-21T07:23:40.249Z,81.40
2017-08-21T07:26:07.704Z,81.40
2017-08-21T07:28:35.267Z,82.00
2017-08-21T07:31:02.727Z,81.70
2017-08-21T07:33:30.292Z,82.00
2017-08-21T07:35:57.744Z,83.00
2017-08-21T07:38:25.208Z,83.10
2017-08-21T07:40:52.680Z,84.70
2017-08-21T07:43:20.139Z,84.50
2017-08-21T07:45:47.609Z,84.50
2017-08-21T07:48:15.072Z,83.50
2017-08-21T07:50:42.575Z,83.50
2017-08-21T07:53:10.052Z,83.30
2017-08-21T07:55:37.650Z,83.90
2017-08-21T07:58:05.108Z,82.60
2017-08-21T08:00:32.584Z,82.40
2017-08-21T08:03:00.047Z,82.10
2017-08-21T08:05:27.623Z,82.70
2017-08-21T08:07:55.111Z,82.40
2017-08-21T08:10:22.571Z,82.10
2017-08-21T08:12:50.067Z,82.00
2017-08-21T08:15:17.577Z,82.00
2017-08-21T08:17:45.167Z,81.20
2017-08-21T08:20:13.059Z,81.40
2017-08-21T08:22:42.102Z,80.00
2017-08-21T08:25:09.632Z,80.30
2017-08-21T08:27:37.148Z,78.30
2017-08-21T08:30:04.600Z,77.80
2017-08-21T08:32:32.072Z,78.00
2017-08-21T08:35:00.291Z,76.70
2017-08-21T08:37:27.765Z,75.60
2017-08-21T08:39:55.244Z,75.10
2017-08-21T08:42:22.771Z,74.50
2017-08-21T08:44:50.243Z,74.10
2017-08-21T08:47:17.738Z,72.00
2017-08-21T08:49:45.224Z,72.40
2017-08-21T08:52:12.688Z,72.30
2017-08-21T08:54:40.166Z,72.00
2017-08-21T08:57:07.652Z,71.20
2017-08-21T08:59:35.144Z,71.00
2017-08-21T09:02:02.702Z,71.30
2017-08-21T09:04:30.180Z,71.90
2017-08-21T09:06:57.653Z,71.90
2017-08-21T09:09:25.144Z,72.60
2017-08-21T09:11:52.624Z,73.10
2017-08-21T09:14:20.189Z,72.50
2017-08-21T09:16:47.959Z,71.70
2017-08-21T09:19:15.433Z,72.10
2017-08-21T09:21:42.888Z,71.90
2017-08-21T09:24:10.628Z,72.00
2017-08-21T09:26:38.100Z,72.20
2017-08-21T09:29:05.556Z,71.80
2017-08-21T09:31:33.099Z,72.80
2017-08-21T09:34:00.601Z,73.40
2017-08-21T09:36:28.174Z,74.10
2017-08-21T09:38:56.057Z,72.00
2017-08-21T09:41:23.542Z,70.10
2017-08-21T09:43:51.024Z,69.40
2017-08-21T09:46:18.491Z,68.00
2017-08-21T09:48:46.007Z,66.30
2017-08-21T09:51:13.480Z,66.60
2017-08-21T09:53:41.442Z,67.60
2017-08-21T09:56:08.911Z,68.80
2017-08-21T09:58:36.367Z,70.10
2017-08-21T10:01:03.859Z,69.50
2017-08-21T10:03:31.364Z,69.90
2017-08-21T10:05:58.825Z,68.10
2017-08-21T10:08:26.353Z,68.10
2017-08-21T10:10:53.833Z,66.60
2017-08-21T10:13:21.291Z,67.10
2017-08-21T10:15:48.768Z,67.30
2017-08-21T10:18:16.233Z,68.80
2017-08-21T10:20:43.696Z,70.40
2017-08-21T10:23:11.220Z,71.20
2017-08-21T10:25:38.679Z,69.90
2017-08-21T10:28:06.239Z,68.20
2017-08-21T10:30:34.105Z,69.30
2017-08-21T10:33:01.665Z,68.50
2017-08-21T10:35:29.124Z,68.10
2017-08-21T10:37:56.884Z,68.90
2017-08-21T10:40:24.350Z,68.50
2017-08-21T10:42:51.813Z,65.20
2017-08-21T10:45:19.344Z,65.50
2017-08-21T10:47:46.849Z,63.60
2017-08-21T10:50:14.320Z,63.10
2017-08-21T10:52:41.831Z,64.40
2017-08-21T10:55:09.287Z,63.10
2017-08-21T10:57:36.802Z,61.70
2017-08-21T11:00:04.275Z,61.30
2017-08-21T11:02:31.736Z,60.10
2017-08-21T11:04:59.311Z,59.10
2017-08-21T11:07:26.767Z,59.80
2017-08-21T11:09:54.319Z,59.60
2017-08-21T11:12:21.796Z,59.20
2017-08-21T11:14:49.260Z,58.20
2017-08-21T11:17:16.728Z,58.70
2017-08-21T11:19:44.282Z,58.70
2017-08-21T11:22:11.763Z,57.50
2017-08-21T11:24:39.262Z,57.70
2017-08-21T11:27:06.726Z,57.40
2017-08-21T11:29:34.187Z,56.10
2017-08-21T11:32:01.648Z,56.20
2017-08-21T11:34:29.124Z,55.20
2017-08-21T11:36:56.681Z,55.30
2017-08-21T11:39:24.149Z,54.70
2017-08-21T11:41:51.620Z,54.90
2017-08-21T11:44:19.105Z,54.20
2017-08-21T11:46:46.604Z,54.60
2017-08-21T11:49:14.348Z,55.10
2017-08-21T11:51:41.815Z,55.70
2017-08-21T11:54:09.281Z,54.70
2017-08-21T11:56:36.748Z,54.40
2017-08-21T11:59:04.238Z,53.80
2017-08-21T12:01:31.705Z,53.10
2017-08-21T12:03:59.196Z,53.00
2017-08-21T12:06:26.656Z,52.90
2017-08-21T12:08:54.124Z,52.70
2017-08-21T12:11:21.656Z,52.90
2017-08-21T12:13:49.128Z,52.50
2017-08-21T12:16:16.600Z,53.80
2017-08-21T12:18:44.080Z,53.00
2017-08-21T12:21:11.603Z,52.90
2017-08-21T12:23:39.143Z,53.00
2017-08-21T12:26:06.608Z,51.60
2017-08-21T12:28:34.086Z,52.80
2017-08-21T12:31:01.564Z,51.40
2017-08-21T12:33:29.076Z,51.40
2017-08-21T12:35:56.555Z,52.00
2017-08-21T12:38:24.054Z,50.80
2017-08-21T12:40:51.531Z,52.00
2017-08-21T12:43:19.168Z,51.80
2017-08-21T12:45:46.642Z,51.20
2017-08-21T12:48:14.126Z,52.20
2017-08-21T12:50:41.603Z,51.40
2017-08-21T12:53:09.090Z,53.50
2017-08-21T12:55:36.608Z,51.20
2017-08-21T12:58:04.104Z,52.10
2017-08-21T13:00:31.597Z,52.60
2017-08-21T13:02:59.106Z,54.00
2017-08-21T13:05:26.620Z,54.30
2017-08-21T13:07:54.087Z,52.40
2017-08-21T13:10:21.712Z,53.00
2017-08-21T13:12:49.216Z,54.20
2017-08-21T13:15:16.778Z,53.20
2017-08-21T13:17:44.310Z,53.40
2017-08-21T13:20:11.784Z,54.10
2017-08-21T13:22:39.290Z,55.20
2017-08-21T13:25:06.784Z,54.80
2017-08-21T13:27:34.255Z,54.10
2017-08-21T13:30:01.767Z,54.10
2017-08-21T13:32:29.247Z,53.70
2017-08-21T13:34:56.719Z,53.60
2017-08-21T13:37:24.261Z,53.30
2017-08-21T13:39:51.736Z,53.40
2017-08-21T13:42:19.277Z,52.60
2017-08-21T13:44:46.792Z,54.10
2017-08-21T13:47:14.318Z,53.20
2017-08-21T13:49:41.792Z,54.10
2017-08-21T13:52:09.356Z,53.80
2017-08-21T13:54:36.819Z,54.60
2017-08-21T13:57:04.308Z,54.20
2017-08-21T13:59:31.882Z,54.70
2017-08-21T14:01:59.741Z,54.50
2017-08-21T14:04:27.214Z,54.10
2017-08-21T14:06:54.683Z,53.80
2017-08-21T14:09:22.156Z,54.80
2017-08-21T14:11:49.691Z,52.60
2017-08-21T14:14:17.716Z,52.00
2017-08-21T14:16:45.193Z,52.60
2017-08-21T14:19:12.648Z,52.60
2017-08-21T14:21:40.130Z,50.70
2017-08-21T14:24:07.596Z,50.30
2017-08-21T14:26:35.131Z,51.00
2017-08-21T14:29:02.612Z,50.10
2017-08-21T14:31:30.076Z,50.30
2017-08-21T14:33:58.529Z,50.00
2017-08-21T14:36:26.296Z,50.10
2017-08-21T14:38:53.851Z,50.40
2017-08-21T14:41:21.331Z,50.50
2017-08-21T14:43:48.794Z,50.00
2017-08-21T14:46:16.323Z,50.70
2017-08-21T14:48:43.800Z,50.80
2017-08-21T14:51:11.320Z,50.80
2017-08-21T14:53:38.901Z,49.70
2017-08-21T14:56:06.372Z,49.80
2017-08-21T14:58:33.908Z,50.00
2017-08-21T15:01:01.376Z,50.80
2017-08-21T15:03:29.748Z,50.70
2017-08-21T15:05:57.301Z,51.20
2017-08-21T15:08:24.776Z,51.10
2017-08-21T15:10:52.300Z,51.20
2017-08-21T15:13:19.829Z,52.60
2017-08-21T15:15:47.295Z,52.30
2017-08-21T15:18:14.771Z,52.30
2017-08-21T15:20:42.235Z,51.50
2017-08-21T15:23:09.711Z,51.00
2017-08-21T15:25:37.352Z,51.80
2017-08-21T15:28:04.920Z,51.10
2017-08-21T15:30:32.484Z,51.40
2017-08-21T15:32:59.947Z,50.00
2017-08-21T15:35:27.424Z,50.20
2017-08-21T15:37:54.889Z,50.30
2017-08-21T15:40:22.363Z,51.50
2017-08-21T15:42:49.872Z,51.60
2017-08-21T15:45:17.431Z,50.60
2017-08-21T15:47:44.920Z,50.10
2017-08-21T15:50:12.452Z,48.80
2017-08-21T15:52:39.907Z,49.10
2017-08-21T15:55:07.391Z,50.80
2017-08-21T15:57:34.856Z,50.00
2017-08-21T16:00:02.324Z,49.90
2017-08-21T16:02:29.823Z,50.70
2017-08-21T16:04:57.441Z,50.20
2017-08-21T16:07:24.900Z,51.50
2017-08-21T16:09:52.380Z,51.70
2017-08-21T16:12:19.855Z,51.80
2017-08-21T16:14:47.317Z,50.20
2017-08-21T16:17:14.879Z,51.70
2017-08-21T16:19:42.362Z,52.40
2017-08-21T16:22:09.829Z,51.80
2017-08-21T16:24:37.349Z,52.70
2017-08-21T16:27:04.840Z,52.60
2017-08-21T16:29:32.301Z,52.40
2017-08-21T16:31:59.809Z,54.20
2017-08-21T16:34:27.413Z,53.20
2017-08-21T16:36:54.903Z,51.90
2017-08-21T16:39:22.379Z,52.10
2017-08-21T16:41:49.849Z,52.20
2017-08-21T16:44:17.366Z,54.00
2017-08-21T16:46:44.848Z,53.80
2017-08-21T16:49:12.311Z,53.50
2017-08-21T16:51:39.776Z,54.80
2017-08-21T16:54:07.329Z,55.60
2017-08-21T16:56:34.892Z,55.70
2017-08-21T16:59:02.444Z,56.30
2017-08-21T17:01:30.215Z,56.20
2017-08-21T17:03:57.679Z,56.10
2017-08-21T17:06:25.148Z,56.80
2017-08-21T17:08:53.008Z,57.20
2017-08-21T17:11:20.479Z,56.80
2017-08-21T17:13:47.941Z,57.20
2017-08-21T17:16:15.475Z,57.60
2017-08-21T17:18:43.032Z,57.80
2017-08-21T17:21:10.504Z,57.80
2017-08-21T17:23:37.981Z,57.90
2017-08-21T17:26:05.468Z,59.30
2017-08-21T17:28:32.944Z,59.70
2017-08-21T17:31:00.426Z,60.20
2017-08-21T17:33:27.896Z,59.60
2017-08-21T17:35:55.487Z,60.50
2017-08-21T17:38:22.983Z,59.20
2017-08-21T17:40:50.468Z,59.90
2017-08-21T17:43:17.988Z,60.10
2017-08-21T17:45:45.463Z,61.40
2017-08-21T17:48:14.231Z,60.90
2017-08-21T17:50:41.703Z,60.60
2017-08-21T17:53:09.951Z,60.30
2017-08-21T17:55:38.787Z,60.10
2017-08-21T17:58:07.819Z,60.60
2017-08-21T18:00:35.304Z,61.00
2017-08-21T18:03:03.553Z,61.30
2017-08-21T18:05:31.035Z,60.70
2017-08-21T18:07:58.517Z,62.20
2017-08-21T18:10:26.367Z,63.00
2017-08-21T18:12:53.921Z,63.70
2017-08-21T18:15:21.403Z,63.50
2017-08-21T18:17:48.863Z,65.10
2017-08-21T18:20:16.332Z,65.00
2017-08-21T18:22:43.810Z,65.30
2017-08-21T18:25:11.296Z,65.90
2017-08-21T18:27:38.775Z,66.40
2017-08-21T18:30:06.262Z,67.00
2017-08-21T18:32:33.743Z,67.60
2017-08-21T18:35:01.223Z,68.40
2017-08-21T18:37:28.852Z,69.30
2017-08-21T18:39:56.317Z,70.30
2017-08-21T18:42:23.790Z,71.30
2017-08-21T18:44:51.363Z,71.60
2017-08-21T18:47:18.867Z,72.60
2017-08-21T18:49:46.340Z,72.80
2017-08-21T18:52:13.851Z,73.40
2017-08-21T18:54:41.416Z,73.60
2017-08-21T18:57:09.484Z,74.00
2017-08-21T18:59:36.991Z,74.60
2017-08-21T19:02:04.487Z,75.40
2017-08-21T19:04:31.958Z,75.20
2017-08-21T19:06:59.541Z,76.40
2017-08-21T19:09:28.096Z,76.30
2017-08-21T19:11:57.234Z,76.70
2017-08-21T19:14:24.735Z,77.30
2017-08-21T19:16:52.482Z,77.50
2017-08-21T19:19:22.319Z,78.00
2017-08-21T19:21:50.039Z,78.30
2017-08-21T19:24:17.505Z,78.50
2017-08-21T19:26:44.984Z,78.80
2017-08-21T19:29:12.468Z,78.90
2017-08-21T19:31:39.959Z,79.30
2017-08-21T19:34:07.433Z,80.00
2017-08-21T19:36:34.920Z,79.90
2017-08-21T19:39:02.379Z,80.10
2017-08-21T19:41:29.946Z,80.10
2017-08-21T19:43:57.850Z,80.40
2017-08-21T19:46:25.364Z,80.60
2017-08-21T19:48:52.864Z,80.70
2017-08-21T19:51:20.860Z,80.90
2017-08-21T19:53:48.446Z,81.20
2017-08-21T19:56:16.279Z,81.40
2017-08-21T19:58:45.320Z,81.60
2017-08-21T20:01:12.976Z,81.70
2017-08-21T20:03:40.488Z,81.60
2017-08-21T20:06:08.296Z,81.80
2017-08-21T20:08:35.772Z,81.90
2017-08-21T20:11:03.334Z,81.80
2017-08-21T20:13:30.868Z,81.40
2017-08-21T20:15:58.379Z,81.50
2017-08-21T20:18:25.968Z,81.90
2017-08-21T20:20:53.484Z,82.10
2017-08-21T20:23:21.003Z,82.30
2017-08-21T20:25:48.779Z,82.10
2017-08-21T20:28:16.307Z,82.20
2017-08-21T20:30:43.773Z,82.00
2017-08-21T20:33:11.227Z,82.40
2017-08-21T20:35:38.700Z,82.40
2017-08-21T20:38:06.168Z,82.60
2017-08-21T20:40:33.635Z,82.60
2017-08-21T20:43:01.151Z,82.20
2017-08-21T20:45:28.624Z,82.50
2017-08-21T20:47:56.174Z,82.60
2017-08-21T20:50:23.731Z,82.70
2017-08-21T20:52:51.283Z,82.90
2017-08-21T20:55:18.783Z,82.80
2017-08-21T20:57:46.272Z,82.80
2017-08-21T21:00:13.745Z,82.80
2017-08-21T21:02:41.221Z,82.80
2017-08-21T21:05:08.704Z,82.90
2017-08-21T21:07:36.232Z,83.00
2017-08-21T21:10:03.703Z,83.20
2017-08-21T21:12:31.191Z,83.30
2017-08-21T21:14:58.700Z,83.30
2017-08-21T21:17:26.213Z,83.40
2017-08-21T21:19:53.722Z,83.70
2017-08-21T21:22:21.275Z,83.90
2017-08-21T21:24:48.747Z,84.00
2017-08-21T21:27:16.215Z,83.80
2017-08-21T21:29:43.700Z,84.10
2017-08-21T21:32:11.448Z,84.20
2017-08-21T21:34:38.948Z,84.10
2017-08-21T21:37:06.523Z,84.20
2017-08-21T21:39:34.083Z,84.30
2017-08-21T21:42:01.702Z,84.20
2017-08-21T21:44:29.160Z,84.10
2017-08-21T21:46:57.479Z,84.00
2017-08-21T21:49:25.044Z,84.00
2017-08-21T21:51:52.512Z,84.00
2017-08-21T21:54:20.060Z,84.30
2017-08-21T21:56:47.518Z,84.20
2017-08-21T21:59:14.971Z,84.30
2017-08-21T22:01:42.523Z,84.70
2017-08-21T22:04:10.075Z,84.10
2017-08-21T22:06:37.531Z,84.90
2017-08-21T22:09:05.003Z,84.10
2017-08-21T22:11:32.467Z,84.50
2017-08-21T22:14:00.012Z,85.20
2017-08-21T22:16:27.495Z,84.40
2017-08-21T22:18:54.964Z,85.00
2017-08-21T22:21:22.427Z,84.50
2017-08-21T22:23:49.900Z,84.20
2017-08-21T22:26:17.385Z,84.50
2017-08-21T22:28:44.848Z,84.70
2017-08-21T22:31:13.174Z,84.70
2017-08-21T22:33:40.636Z,84.60
2017-08-21T22:36:08.099Z,84.90
2017-08-21T22:38:35.602Z,84.80
2017-08-21T22:41:03.062Z,84.80
2017-08-21T22:43:30.530Z,85.50
2017-08-21T22:45:57.999Z,84.50
2017-08-21T22:48:25.482Z,84.20
2017-08-21T22:50:52.919Z,84.20
2017-08-21T22:53:20.403Z,84.50
2017-08-21T22:55:48.012Z,84.50
2017-08-21T22:58:16.471Z,84.30
2017-08-21T23:00:43.960Z,84.50
2017-08-21T23:03:11.492Z,84.50
2017-08-21T23:05:39.059Z,84.00
2017-08-21T23:08:06.526Z,83.30
2017-08-21T23:10:34.073Z,84.20
2017-08-21T23:13:01.539Z,83.90
2017-08-21T23:15:29.090Z,84.20
2017-08-21T23:17:56.636Z,84.40
2017-08-21T23:20:24.091Z,84.20
2017-08-21T23:22:51.558Z,84.20
2017-08-21T23:25:19.039Z,84.40
2017-08-21T23:27:46.499Z,84.60
2017-08-21T23:30:14.395Z,84.00
2017-08-21T23:32:41.924Z,83.90
2017-08-21T23:35:09.387Z,84.30
2017-08-21T23:37:36.867Z,84.00
2017-08-21T23:40:04.364Z,84.10
2017-08-21T23:42:31.920Z,84.00
2017-08-21T23:44:59.479Z,83.80
2017-08-21T23:47:26.942Z,84.00
2017-08-21T23:49:54.419Z,84.20
2017-08-21T23:52:21.908Z,84.30
2017-08-21T23:54:49.378Z,84.10
2017-08-21T23:57:16.839Z,84.00
2017-08-21T23:59:44.324Z,84.00
